sensor_id;sensor_type;location;lat;lon;timestamp;pressure;altitude;pressure_sealevel;temperature;humidity
71424;BME280;59240;51.370;-0.486;2022-10-16T00:01:23;100535.78;;;11.98;74.70
71424;BME280;59240;51.370;-0.486;2022-10-16T00:03:51;100526.31;;;11.96;74.80
71424;BME280;59240;51.370;-0.486;2022-10-16T00:06:19;100530.75;;;11.92;74.54
71424;BME280;59240;51.370;-0.486;2022-10-16T00:08:47;100526.56;;;11.87;74.87
71424;BME280;59240;51.370;-0.486;2022-10-16T00:11:25;100531.91;;;11.84;75.10
71424;BME280;59240;51.370;-0.486;2022-10-16T00:13:56;100528.47;;;11.80;75.44
71424;BME280;59240;51.370;-0.486;2022-10-16T00:16:23;100489.34;;;11.52;74.93
71424;BME280;59240;51.370;-0.486;2022-10-16T00:18:49;100538.22;;;11.75;75.78
71424;BME280;59240;51.370;-0.486;2022-10-16T00:21:19;100527.00;;;11.71;74.99
71424;BME280;59240;51.370;-0.486;2022-10-16T00:23:46;100541.81;;;11.71;75.15
71424;BME280;59240;51.370;-0.486;2022-10-16T00:26:15;100539.41;;;11.65;75.34
71424;BME280;59240;51.370;-0.486;2022-10-16T00:28:45;100546.38;;;11.64;75.50
71424;BME280;59240;51.370;-0.486;2022-10-16T00:31:12;100543.03;;;11.59;76.08
71424;BME280;59240;51.370;-0.486;2022-10-16T00:33:40;100551.78;;;11.58;75.65
71424;BME280;59240;51.370;-0.486;2022-10-16T00:36:10;100540.53;;;11.56;76.32
71424;BME280;59240;51.370;-0.486;2022-10-16T00:38:37;100546.56;;;11.58;76.34
71424;BME280;59240;51.370;-0.486;2022-10-16T00:41:05;100545.69;;;11.58;76.54
71424;BME280;59240;51.370;-0.486;2022-10-16T00:46:03;100545.81;;;11.55;76.51
71424;BME280;59240;51.370;-0.486;2022-10-16T00:48:30;100543.25;;;11.53;76.14
71424;BME280;59240;51.370;-0.486;2022-10-16T00:50:58;100542.38;;;11.52;76.40
71424;BME280;59240;51.370;-0.486;2022-10-16T00:53:25;100540.72;;;11.50;76.24
71424;BME280;59240;51.370;-0.486;2022-10-16T00:55:53;100545.88;;;11.51;76.26
71424;BME280;59240;51.370;-0.486;2022-10-16T00:58:20;100549.38;;;11.50;76.50
71424;BME280;59240;51.370;-0.486;2022-10-16T01:00:47;100552.78;;;11.52;76.85
71424;BME280;59240;51.370;-0.486;2022-10-16T01:03:26;100557.28;;;11.49;77.16
71424;BME280;59240;51.370;-0.486;2022-10-16T01:06:03;100534.94;;;11.39;76.50
71424;BME280;59240;51.370;-0.486;2022-10-16T01:08:41;100561.63;;;11.48;77.03
71424;BME280;59240;51.370;-0.486;2022-10-16T01:11:19;100561.69;;;11.47;76.79
71424;BME280;59240;51.370;-0.486;2022-10-16T01:13:50;100561.69;;;11.45;77.04
71424;BME280;59240;51.370;-0.486;2022-10-16T01:16:34;100564.41;;;11.42;77.26
71424;BME280;59240;51.370;-0.486;2022-10-16T01:19:12;100562.72;;;11.41;76.87
71424;BME280;59240;51.370;-0.486;2022-10-16T01:21:43;100563.63;;;11.40;77.36
71424;BME280;59240;51.370;-0.486;2022-10-16T01:24:31;100574.03;;;11.40;77.77
71424;BME280;59240;51.370;-0.486;2022-10-16T01:27:09;100573.09;;;11.43;77.45
71424;BME280;59240;51.370;-0.486;2022-10-16T01:32:36;100587.72;;;11.48;77.36
71424;BME280;59240;51.370;-0.486;2022-10-16T01:35:27;100580.63;;;11.54;78.09
71424;BME280;59240;51.370;-0.486;2022-10-16T01:38:03;100574.44;;;11.56;77.63
71424;BME280;59240;51.370;-0.486;2022-10-16T01:40:34;100577.00;;;11.58;77.83
71424;BME280;59240;51.370;-0.486;2022-10-16T01:43:06;100578.63;;;11.62;77.50
71424;BME280;59240;51.370;-0.486;2022-10-16T01:45:36;100575.94;;;11.65;77.73
71424;BME280;59240;51.370;-0.486;2022-10-16T01:48:04;100572.41;;;11.66;77.73
71424;BME280;59240;51.370;-0.486;2022-10-16T01:50:38;100573.25;;;11.68;77.49
71424;BME280;59240;51.370;-0.486;2022-10-16T01:53:07;100576.75;;;11.67;76.89
71424;BME280;59240;51.370;-0.486;2022-10-16T01:55:39;100584.53;;;11.68;77.08
71424;BME280;59240;51.370;-0.486;2022-10-16T01:58:11;100582.09;;;11.62;77.53
71424;BME280;59240;51.370;-0.486;2022-10-16T02:00:40;100569.47;;;11.48;77.55
71424;BME280;59240;51.370;-0.486;2022-10-16T02:03:10;100586.63;;;11.56;77.15
71424;BME280;59240;51.370;-0.486;2022-10-16T02:05:42;100582.44;;;11.50;77.39
71424;BME280;59240;51.370;-0.486;2022-10-16T02:08:12;100583.44;;;11.46;77.63
71424;BME280;59240;51.370;-0.486;2022-10-16T02:10:38;100592.19;;;11.43;77.55
71424;BME280;59240;51.370;-0.486;2022-10-16T02:15:35;100601.09;;;11.36;77.46
71424;BME280;59240;51.370;-0.486;2022-10-16T02:18:05;100611.66;;;11.32;77.81
71424;BME280;59240;51.370;-0.486;2022-10-16T02:20:38;100618.78;;;11.25;77.40
71424;BME280;59240;51.370;-0.486;2022-10-16T02:23:11;100603.72;;;11.05;77.00
71424;BME280;59240;51.370;-0.486;2022-10-16T02:25:41;100628.72;;;11.11;77.59
71424;BME280;59240;51.370;-0.486;2022-10-16T02:28:19;100641.06;;;11.06;77.99
71424;BME280;59240;51.370;-0.486;2022-10-16T02:30:52;100629.94;;;10.98;77.50
71424;BME280;59240;51.370;-0.486;2022-10-16T02:33:23;100641.28;;;10.96;78.41
71424;BME280;59240;51.370;-0.486;2022-10-16T02:35:52;100641.44;;;10.90;77.69
71424;BME280;59240;51.370;-0.486;2022-10-16T02:38:21;100650.16;;;10.89;77.68
71424;BME280;59240;51.370;-0.486;2022-10-16T02:40:48;100621.91;;;10.73;78.33
71424;BME280;59240;51.370;-0.486;2022-10-16T02:43:15;100643.47;;;10.79;78.04
71424;BME280;59240;51.370;-0.486;2022-10-16T02:45:42;100653.06;;;10.77;78.30
71424;BME280;59240;51.370;-0.486;2022-10-16T02:48:08;100661.78;;;10.76;77.78
71424;BME280;59240;51.370;-0.486;2022-10-16T02:50:35;100656.75;;;10.68;77.57
71424;BME280;59240;51.370;-0.486;2022-10-16T02:53:02;100658.47;;;10.69;77.70
71424;BME280;59240;51.370;-0.486;2022-10-16T02:55:28;100658.53;;;10.66;78.13
71424;BME280;59240;51.370;-0.486;2022-10-16T02:57:55;100666.41;;;10.65;77.61
71424;BME280;59240;51.370;-0.486;2022-10-16T03:00:22;100664.69;;;10.64;78.69
71424;BME280;59240;51.370;-0.486;2022-10-16T03:02:48;100660.41;;;10.61;77.94
71424;BME280;59240;51.370;-0.486;2022-10-16T03:05:15;100654.41;;;10.58;78.12
71424;BME280;59240;51.370;-0.486;2022-10-16T03:07:42;100652.72;;;10.55;77.66
71424;BME280;59240;51.370;-0.486;2022-10-16T03:10:09;100663.13;;;10.57;77.59
71424;BME280;59240;51.370;-0.486;2022-10-16T03:12:35;100666.59;;;10.56;78.16
71424;BME280;59240;51.370;-0.486;2022-10-16T03:15:02;100667.53;;;10.53;78.12
71424;BME280;59240;51.370;-0.486;2022-10-16T03:17:29;100669.28;;;10.53;77.73
71424;BME280;59240;51.370;-0.486;2022-10-16T03:19:57;100666.75;;;10.50;78.32
71424;BME280;59240;51.370;-0.486;2022-10-16T03:22:24;100665.13;;;10.46;79.06
71424;BME280;59240;51.370;-0.486;2022-10-16T03:24:50;100664.28;;;10.45;78.91
71424;BME280;59240;51.370;-0.486;2022-10-16T03:27:17;100670.34;;;10.46;79.16
71424;BME280;59240;51.370;-0.486;2022-10-16T03:29:43;100679.03;;;10.45;78.85
71424;BME280;59240;51.370;-0.486;2022-10-16T03:32:10;100672.25;;;10.37;79.09
71424;BME280;59240;51.370;-0.486;2022-10-16T03:34:36;100668.91;;;10.32;78.40
71424;BME280;59240;51.370;-0.486;2022-10-16T03:37:04;100681.03;;;10.33;78.79
71424;BME280;59240;51.370;-0.486;2022-10-16T03:39:30;100679.44;;;10.26;78.81
71424;BME280;59240;51.370;-0.486;2022-10-16T03:41:57;100682.13;;;10.23;79.01
71424;BME280;59240;51.370;-0.486;2022-10-16T03:44:23;100691.69;;;10.23;79.41
71424;BME280;59240;51.370;-0.486;2022-10-16T03:46:49;100657.41;;;10.01;79.04
71424;BME280;59240;51.370;-0.486;2022-10-16T03:49:16;100692.66;;;10.17;78.56
71424;BME280;59240;51.370;-0.486;2022-10-16T03:51:42;100697.00;;;10.15;78.49
71424;BME280;59240;51.370;-0.486;2022-10-16T03:54:10;100697.94;;;10.12;78.92
71424;BME280;59240;51.370;-0.486;2022-10-16T03:56:36;100710.13;;;10.10;78.90
71424;BME280;59240;51.370;-0.486;2022-10-16T03:59:03;100708.47;;;10.06;80.32
71424;BME280;59240;51.370;-0.486;2022-10-16T04:01:29;100714.63;;;10.04;79.58
71424;BME280;59240;51.370;-0.486;2022-10-16T04:03:56;100716.38;;;10.02;78.95
71424;BME280;59240;51.370;-0.486;2022-10-16T04:06:23;100703.47;;;9.97;79.25
71424;BME280;59240;51.370;-0.486;2022-10-16T04:08:49;100669.41;;;9.68;79.68
71424;BME280;59240;51.370;-0.486;2022-10-16T04:11:15;100717.41;;;9.93;79.28
71424;BME280;59240;51.370;-0.486;2022-10-16T04:13:42;100719.16;;;9.93;80.52
71424;BME280;59240;51.370;-0.486;2022-10-16T04:16:09;100728.75;;;9.91;79.68
71424;BME280;59240;51.370;-0.486;2022-10-16T04:18:36;100727.09;;;9.86;79.59
71424;BME280;59240;51.370;-0.486;2022-10-16T04:21:05;100727.09;;;9.86;79.34
71424;BME280;59240;51.370;-0.486;2022-10-16T04:23:32;100740.94;;;9.89;79.47
71424;BME280;59240;51.370;-0.486;2022-10-16T04:25:59;100741.00;;;9.85;80.31
71424;BME280;59240;51.370;-0.486;2022-10-16T04:28:26;100753.13;;;9.86;80.00
71424;BME280;59240;51.370;-0.486;2022-10-16T04:30:53;100759.22;;;9.85;79.87
71424;BME280;59240;51.370;-0.486;2022-10-16T04:33:19;100765.31;;;9.84;80.63
71424;BME280;59240;51.370;-0.486;2022-10-16T04:35:46;100768.88;;;9.79;80.93
71424;BME280;59240;51.370;-0.486;2022-10-16T04:38:12;100780.16;;;9.78;80.54
71424;BME280;59240;51.370;-0.486;2022-10-16T04:40:41;100779.41;;;9.73;80.42
71424;BME280;59240;51.370;-0.486;2022-10-16T04:43:08;100787.22;;;9.71;80.87
71424;BME280;59240;51.370;-0.486;2022-10-16T04:45:35;100798.53;;;9.70;80.37
71424;BME280;59240;51.370;-0.486;2022-10-16T04:48:02;100798.63;;;9.64;81.33
71424;BME280;59240;51.370;-0.486;2022-10-16T04:50:28;100800.41;;;9.62;80.25
71424;BME280;59240;51.370;-0.486;2022-10-16T04:52:55;100816.91;;;9.61;80.69
71424;BME280;59240;51.370;-0.486;2022-10-16T04:55:21;100816.91;;;9.59;80.52
71424;BME280;59240;51.370;-0.486;2022-10-16T04:57:48;100791.19;;;9.44;81.18
71424;BME280;59240;51.370;-0.486;2022-10-16T05:00:14;100833.44;;;9.57;81.53
71424;BME280;59240;51.370;-0.486;2022-10-16T05:02:41;100828.31;;;9.54;81.45
71424;BME280;59240;51.370;-0.486;2022-10-16T05:05:07;100843.88;;;9.55;81.45
71424;BME280;59240;51.370;-0.486;2022-10-16T05:07:34;100848.22;;;9.53;80.58
71424;BME280;59240;51.370;-0.486;2022-10-16T05:10:01;100846.59;;;9.48;80.96
71424;BME280;59240;51.370;-0.486;2022-10-16T05:12:27;100856.13;;;9.49;81.26
71424;BME280;59240;51.370;-0.486;2022-10-16T05:14:54;100827.84;;;9.29;80.91
71424;BME280;59240;51.370;-0.486;2022-10-16T05:17:25;100856.22;;;9.43;81.11
71424;BME280;59240;51.370;-0.486;2022-10-16T05:19:53;100862.28;;;9.43;80.10
71424;BME280;59240;51.370;-0.486;2022-10-16T05:22:20;100870.09;;;9.42;81.35
71424;BME280;59240;51.370;-0.486;2022-10-16T05:24:46;100870.13;;;9.39;80.23
71424;BME280;59240;51.370;-0.486;2022-10-16T05:27:13;100878.00;;;9.36;80.55
71424;BME280;59240;51.370;-0.486;2022-10-16T05:29:46;100884.97;;;9.32;80.95
71424;BME280;59240;51.370;-0.486;2022-10-16T05:32:17;100890.22;;;9.29;81.44
71424;BME280;59240;51.370;-0.486;2022-10-16T05:34:45;100885.94;;;9.26;80.56
71424;BME280;59240;51.370;-0.486;2022-10-16T05:37:12;100890.25;;;9.26;80.03
71424;BME280;59240;51.370;-0.486;2022-10-16T05:39:39;100885.97;;;9.23;81.34
71424;BME280;59240;51.370;-0.486;2022-10-16T05:42:05;100896.38;;;9.23;81.07
71424;BME280;59240;51.370;-0.486;2022-10-16T05:44:32;100892.94;;;9.21;80.77
71424;BME280;59240;51.370;-0.486;2022-10-16T05:47:04;100896.44;;;9.20;81.04
71424;BME280;59240;51.370;-0.486;2022-10-16T05:49:30;100905.97;;;9.18;81.38
71424;BME280;59240;51.370;-0.486;2022-10-16T05:51:57;100893.03;;;9.15;80.35
71424;BME280;59240;51.370;-0.486;2022-10-16T05:54:23;100913.81;;;9.15;80.49
71424;BME280;59240;51.370;-0.486;2022-10-16T05:56:50;100905.19;;;9.13;81.41
71424;BME280;59240;51.370;-0.486;2022-10-16T05:59:16;100912.13;;;9.11;80.56
71424;BME280;59240;51.370;-0.486;2022-10-16T06:01:43;100913.91;;;9.09;81.37
71424;BME280;59240;51.370;-0.486;2022-10-16T06:04:09;100920.00;;;9.07;81.04
71424;BME280;59240;51.370;-0.486;2022-10-16T06:06:41;100922.66;;;9.02;81.11
71424;BME280;59240;51.370;-0.486;2022-10-16T06:09:09;100929.56;;;9.03;80.93
71424;BME280;59240;51.370;-0.486;2022-10-16T06:11:36;100931.34;;;9.01;81.46
71424;BME280;59240;51.370;-0.486;2022-10-16T06:14:03;100940.03;;;8.97;80.07
71424;BME280;59240;51.370;-0.486;2022-10-16T06:16:37;100914.22;;;8.85;80.48
71424;BME280;59240;51.370;-0.486;2022-10-16T06:19:04;100937.44;;;8.97;80.28
71424;BME280;59240;51.370;-0.486;2022-10-16T06:21:32;100928.00;;;8.93;81.00
71424;BME280;59240;51.370;-0.486;2022-10-16T06:23:59;100928.78;;;8.96;81.32
71424;BME280;59240;51.370;-0.486;2022-10-16T06:26:27;100941.81;;;8.95;80.65
71424;BME280;59240;51.370;-0.486;2022-10-16T06:28:55;100939.22;;;8.95;80.09
71424;BME280;59240;51.370;-0.486;2022-10-16T06:31:23;100934.91;;;8.91;80.70
71424;BME280;59240;51.370;-0.486;2022-10-16T06:33:53;100938.44;;;8.87;81.25
71424;BME280;59240;51.370;-0.486;2022-10-16T06:38:45;100952.28;;;8.89;81.17
71424;BME280;59240;51.370;-0.486;2022-10-16T06:41:15;100948.84;;;8.87;80.79
71424;BME280;59240;51.370;-0.486;2022-10-16T06:43:42;100948.00;;;8.86;81.27
71424;BME280;59240;51.370;-0.486;2022-10-16T06:46:12;100947.97;;;8.85;81.36
71424;BME280;59240;51.370;-0.486;2022-10-16T06:48:39;100950.56;;;8.85;80.44
71424;BME280;59240;51.370;-0.486;2022-10-16T06:51:11;100955.78;;;8.85;81.64
71424;BME280;59240;51.370;-0.486;2022-10-16T06:53:43;100957.53;;;8.86;81.62
71424;BME280;59240;51.370;-0.486;2022-10-16T06:56:28;100956.63;;;8.85;81.15
71424;BME280;59240;51.370;-0.486;2022-10-16T06:58:57;100966.16;;;8.85;81.05
71424;BME280;59240;51.370;-0.486;2022-10-16T07:01:24;100969.63;;;8.87;80.81
71424;BME280;59240;51.370;-0.486;2022-10-16T07:03:51;100977.41;;;8.87;81.64
71424;BME280;59240;51.370;-0.486;2022-10-16T07:06:20;100984.34;;;8.85;81.36
71424;BME280;59240;51.370;-0.486;2022-10-16T07:08:48;100988.66;;;8.89;81.36
71424;BME280;59240;51.370;-0.486;2022-10-16T07:11:20;100999.03;;;8.89;81.06
71424;BME280;59240;51.370;-0.486;2022-10-16T07:13:47;100996.41;;;8.90;81.02
71424;BME280;59240;51.370;-0.486;2022-10-16T07:16:24;101013.63;;;8.99;82.30
71424;BME280;59240;51.370;-0.486;2022-10-16T07:18:53;101020.50;;;9.04;81.65
71424;BME280;59240;51.370;-0.486;2022-10-16T07:21:25;101019.59;;;9.09;81.93
71424;BME280;59240;51.370;-0.486;2022-10-16T07:23:53;101012.72;;;9.06;81.64
71424;BME280;59240;51.370;-0.486;2022-10-16T07:26:21;101001.50;;;9.01;81.51
71424;BME280;59240;51.370;-0.486;2022-10-16T07:28:49;101024.69;;;9.16;80.75
71424;BME280;59240;51.370;-0.486;2022-10-16T07:31:17;101027.25;;;9.21;82.22
71424;BME280;59240;51.370;-0.486;2022-10-16T07:33:44;101024.56;;;9.28;81.12
71424;BME280;59240;51.370;-0.486;2022-10-16T07:36:12;101034.81;;;9.38;82.01
71424;BME280;59240;51.370;-0.486;2022-10-16T07:38:42;101038.19;;;9.44;81.85
71424;BME280;59240;51.370;-0.486;2022-10-16T07:41:11;101038.16;;;9.49;82.08
71424;BME280;59240;51.370;-0.486;2022-10-16T07:43:38;101050.19;;;9.56;81.56
71424;BME280;59240;51.370;-0.486;2022-10-16T07:46:06;101057.03;;;9.63;81.96
71424;BME280;59240;51.370;-0.486;2022-10-16T07:48:34;101062.97;;;9.71;81.59
71424;BME280;59240;51.370;-0.486;2022-10-16T07:51:03;101062.00;;;9.78;80.89
71424;BME280;59240;51.370;-0.486;2022-10-16T07:53:30;101068.84;;;9.85;80.94
71424;BME280;59240;51.370;-0.486;2022-10-16T07:56:02;101066.16;;;9.92;80.36
71424;BME280;59240;51.370;-0.486;2022-10-16T07:58:29;101067.75;;;10.00;81.15
71424;BME280;59240;51.370;-0.486;2022-10-16T08:00:56;101071.97;;;10.07;80.24
71424;BME280;59240;51.370;-0.486;2022-10-16T08:03:24;101069.25;;;10.15;81.06
71424;BME280;59240;51.370;-0.486;2022-10-16T08:05:50;101061.34;;;10.21;80.58
71424;BME280;59240;51.370;-0.486;2022-10-16T08:08:18;101068.19;;;10.31;79.69
71424;BME280;59240;51.370;-0.486;2022-10-16T08:10:45;101076.72;;;10.39;80.09
71424;BME280;59240;51.370;-0.486;2022-10-16T08:13:12;101077.50;;;10.46;80.07
71424;BME280;59240;51.370;-0.486;2022-10-16T08:15:42;101079.09;;;10.53;80.56
71424;BME280;59240;51.370;-0.486;2022-10-16T08:18:10;101077.22;;;10.61;79.89
71424;BME280;59240;51.370;-0.486;2022-10-16T08:20:37;101080.53;;;10.69;79.87
71424;BME280;59240;51.370;-0.486;2022-10-16T08:23:05;101092.47;;;10.83;79.91
71424;BME280;59240;51.370;-0.486;2022-10-16T08:25:34;101070.84;;;10.79;79.47
71424;BME280;59240;51.370;-0.486;2022-10-16T08:28:03;101103.44;;;11.02;78.44
71424;BME280;59240;51.370;-0.486;2022-10-16T08:30:29;101103.19;;;11.14;78.51
71424;BME280;59240;51.370;-0.486;2022-10-16T08:32:56;101080.75;;;11.07;78.98
71424;BME280;59240;51.370;-0.486;2022-10-16T08:35:24;101101.25;;;11.23;78.35
71424;BME280;59240;51.370;-0.486;2022-10-16T08:37:50;101116.69;;;11.36;78.70
71424;BME280;59240;51.370;-0.486;2022-10-16T08:40:18;101114.72;;;11.45;77.63
71424;BME280;59240;51.370;-0.486;2022-10-16T08:45:40;101118.72;;;11.63;77.13
71424;BME280;59240;51.370;-0.486;2022-10-16T08:51:01;101128.75;;;11.85;76.75
71424;BME280;59240;51.370;-0.486;2022-10-16T08:53:33;101132.91;;;11.93;76.36
71424;BME280;59240;51.370;-0.486;2022-10-16T08:56:02;101136.13;;;12.04;76.30
71424;BME280;59240;51.370;-0.486;2022-10-16T08:58:30;101130.69;;;12.14;76.31
71424;BME280;59240;51.370;-0.486;2022-10-16T09:01:00;101115.97;;;12.11;75.03
71424;BME280;59240;51.370;-0.486;2022-10-16T09:12:14;101149.38;;;12.71;74.90
71424;BME280;59240;51.370;-0.486;2022-10-16T09:20:55;101156.88;;;13.50;73.32
71424;BME280;59240;51.370;-0.486;2022-10-16T09:23:16;101155.41;;;13.73;71.54
71424;BME280;59240;51.370;-0.486;2022-10-16T09:25:48;101152.41;;;13.85;71.13
71424;BME280;59240;51.370;-0.486;2022-10-16T09:28:17;101150.31;;;13.96;70.51
71424;BME280;59240;51.370;-0.486;2022-10-16T09:30:45;101163.69;;;14.16;70.82
71424;BME280;59240;51.370;-0.486;2022-10-16T09:33:12;101161.38;;;14.34;68.94
71424;BME280;59240;51.370;-0.486;2022-10-16T09:35:43;101162.66;;;14.50;68.70
71424;BME280;59240;51.370;-0.486;2022-10-16T09:38:28;101150.94;;;14.62;67.34
71424;BME280;59240;51.370;-0.486;2022-10-16T09:40:57;101148.72;;;14.74;67.48
71424;BME280;59240;51.370;-0.486;2022-10-16T09:43:55;101161.22;;;14.93;66.45
71424;BME280;59240;51.370;-0.486;2022-10-16T09:46:34;101152.16;;;15.03;66.37
71424;BME280;59240;51.370;-0.486;2022-10-16T09:49:05;101159.59;;;15.15;66.17
71424;BME280;59240;51.370;-0.486;2022-10-16T09:51:34;101160.41;;;15.17;65.82
71424;BME280;59240;51.370;-0.486;2022-10-16T09:54:10;101163.63;;;15.25;65.98
71424;BME280;59240;51.370;-0.486;2022-10-16T09:56:39;101163.50;;;15.28;65.94
71424;BME280;59240;51.370;-0.486;2022-10-16T09:59:17;101169.28;;;15.38;65.04
71424;BME280;59240;51.370;-0.486;2022-10-16T10:01:49;101173.34;;;15.47;64.45
71424;BME280;59240;51.370;-0.486;2022-10-16T10:04:22;101182.78;;;15.52;64.02
71424;BME280;59240;51.370;-0.486;2022-10-16T10:06:54;101161.34;;;15.40;63.56
71424;BME280;59240;51.370;-0.486;2022-10-16T10:11:55;101194.00;;;15.56;63.66
71424;BME280;59240;51.370;-0.486;2022-10-16T10:17:15;101190.94;;;15.45;63.34
71424;BME280;59240;51.370;-0.486;2022-10-16T10:19:55;101191.16;;;15.39;63.49
71424;BME280;59240;51.370;-0.486;2022-10-16T10:22:28;101184.34;;;15.33;64.14
71424;BME280;59240;51.370;-0.486;2022-10-16T10:36:08;101174.63;;;15.35;62.88
71424;BME280;59240;51.370;-0.486;2022-10-16T10:38:58;101170.94;;;15.41;64.44
71424;BME280;59240;51.370;-0.486;2022-10-16T10:44:19;101189.84;;;15.75;63.92
71424;BME280;59240;51.370;-0.486;2022-10-16T10:52:20;101173.69;;;16.31;62.12
71424;BME280;59240;51.370;-0.486;2022-10-16T11:10:52;101173.25;;;16.64;59.40
71424;BME280;59240;51.370;-0.486;2022-10-16T11:13:33;101163.66;;;16.63;59.57
71424;BME280;59240;51.370;-0.486;2022-10-16T11:16:11;101165.50;;;16.61;59.63
71424;BME280;59240;51.370;-0.486;2022-10-16T11:18:59;101167.31;;;16.59;59.24
71424;BME280;59240;51.370;-0.486;2022-10-16T11:21:31;101170.06;;;16.56;59.04
71424;BME280;59240;51.370;-0.486;2022-10-16T11:26:41;101162.06;;;16.59;58.87
71424;BME280;59240;51.370;-0.486;2022-10-16T11:29:23;101159.50;;;16.57;58.89
71424;BME280;59240;51.370;-0.486;2022-10-16T11:31:56;101157.59;;;16.61;59.11
71424;BME280;59240;51.370;-0.486;2022-10-16T11:34:26;101153.13;;;16.63;58.55
71424;BME280;59240;51.370;-0.486;2022-10-16T11:37:03;101150.59;;;16.60;58.73
71424;BME280;59240;51.370;-0.486;2022-10-16T11:39:32;101164.59;;;16.60;58.69
71424;BME280;59240;51.370;-0.486;2022-10-16T11:42:11;101170.00;;;16.57;58.51
71424;BME280;59240;51.370;-0.486;2022-10-16T11:47:35;101166.47;;;16.58;57.13
71424;BME280;59240;51.370;-0.486;2022-10-16T11:50:33;101151.53;;;16.59;57.38
71424;BME280;59240;51.370;-0.486;2022-10-16T11:55:47;101154.84;;;16.64;57.00
71424;BME280;59240;51.370;-0.486;2022-10-16T11:58:34;101150.28;;;16.67;56.60
71424;BME280;59240;51.370;-0.486;2022-10-16T12:06:37;101152.50;;;16.78;56.37
71424;BME280;59240;51.370;-0.486;2022-10-16T12:09:04;101159.22;;;16.85;56.69
71424;BME280;59240;51.370;-0.486;2022-10-16T12:11:35;101155.75;;;16.85;56.76
71424;BME280;59240;51.370;-0.486;2022-10-16T12:16:56;101144.97;;;16.91;57.80
71424;BME280;59240;51.370;-0.486;2022-10-16T12:19:24;101155.16;;;16.99;57.29
71424;BME280;59240;51.370;-0.486;2022-10-16T12:21:57;101143.63;;;17.01;57.43
71424;BME280;59240;51.370;-0.486;2022-10-16T12:26:57;101138.97;;;17.08;56.31
71424;BME280;59240;51.370;-0.486;2022-10-16T12:29:38;101135.44;;;17.09;56.79
71424;BME280;59240;51.370;-0.486;2022-10-16T12:32:28;101125.63;;;17.12;57.57
71424;BME280;59240;51.370;-0.486;2022-10-16T12:35:22;101124.50;;;17.18;56.03
71424;BME280;59240;51.370;-0.486;2022-10-16T12:37:50;101113.81;;;17.21;56.32
71424;BME280;59240;51.370;-0.486;2022-10-16T12:42:04;101120.13;;;17.37;56.59
71424;BME280;59240;51.370;-0.486;2022-10-16T12:44:35;101117.44;;;17.39;57.39
71424;BME280;59240;51.370;-0.486;2022-10-16T12:47:02;101113.78;;;17.41;56.40
71424;BME280;59240;51.370;-0.486;2022-10-16T12:49:32;101124.97;;;17.46;56.36
71424;BME280;59240;51.370;-0.486;2022-10-16T12:51:59;101111.16;;;17.41;57.03
71424;BME280;59240;51.370;-0.486;2022-10-16T12:54:37;101121.50;;;17.46;57.41
71424;BME280;59240;51.370;-0.486;2022-10-16T13:00:09;101126.41;;;17.54;56.56
71424;BME280;59240;51.370;-0.486;2022-10-16T13:06:03;101117.03;;;17.67;56.53
71424;BME280;59240;51.370;-0.486;2022-10-16T13:22:24;101124.97;;;17.46;56.05
71424;BME280;59240;51.370;-0.486;2022-10-16T13:25:18;101127.81;;;17.42;56.91
71424;BME280;59240;51.370;-0.486;2022-10-16T13:28:21;101128.81;;;17.39;57.00
71424;BME280;59240;51.370;-0.486;2022-10-16T13:30:56;101116.56;;;17.38;57.27
71424;BME280;59240;51.370;-0.486;2022-10-16T13:35:57;101099.06;;;17.37;58.09
71424;BME280;59240;51.370;-0.486;2022-10-16T13:38:31;101105.03;;;17.41;58.40
71424;BME280;59240;51.370;-0.486;2022-10-16T13:41:03;101089.66;;;17.32;57.50
71424;BME280;59240;51.370;-0.486;2022-10-16T13:43:38;101085.25;;;17.32;57.38
71424;BME280;59240;51.370;-0.486;2022-10-16T13:46:10;101104.06;;;17.43;56.67
71424;BME280;59240;51.370;-0.486;2022-10-16T13:48:38;101076.56;;;17.30;57.62
71424;BME280;59240;51.370;-0.486;2022-10-16T13:51:14;101108.59;;;17.40;56.36
71424;BME280;59240;51.370;-0.486;2022-10-16T13:53:42;101108.59;;;17.40;56.09
71424;BME280;59240;51.370;-0.486;2022-10-16T13:56:14;101102.75;;;17.33;56.41
71424;BME280;59240;51.370;-0.486;2022-10-16T13:58:41;101113.28;;;17.33;56.85
71424;BME280;59240;51.370;-0.486;2022-10-16T14:01:41;101104.72;;;17.28;56.77
71424;BME280;59240;51.370;-0.486;2022-10-16T14:04:11;101106.44;;;17.29;57.27
71424;BME280;59240;51.370;-0.486;2022-10-16T14:06:41;101106.72;;;17.23;57.29
71424;BME280;59240;51.370;-0.486;2022-10-16T14:09:29;101107.69;;;17.20;57.63
71424;BME280;59240;51.370;-0.486;2022-10-16T14:12:03;101106.84;;;17.20;57.28
71424;BME280;59240;51.370;-0.486;2022-10-16T14:14:38;101092.91;;;17.18;57.56
71424;BME280;59240;51.370;-0.486;2022-10-16T14:17:13;101095.88;;;17.10;57.19
71424;BME280;59240;51.370;-0.486;2022-10-16T14:19:40;101093.38;;;17.07;57.82
71424;BME280;59240;51.370;-0.486;2022-10-16T14:22:26;101091.72;;;17.05;58.33
71424;BME280;59240;51.370;-0.486;2022-10-16T14:24:55;101093.31;;;17.09;59.24
71424;BME280;59240;51.370;-0.486;2022-10-16T14:30:18;101099.22;;;17.14;59.47
71424;BME280;59240;51.370;-0.486;2022-10-16T14:37:57;101083.06;;;17.03;59.24
71424;BME280;59240;51.370;-0.486;2022-10-16T14:40:27;101094.38;;;17.05;59.40
71424;BME280;59240;51.370;-0.486;2022-10-16T14:42:54;101097.13;;;17.02;59.69
71424;BME280;59240;51.370;-0.486;2022-10-16T14:45:24;101080.94;;;16.90;59.38
71424;BME280;59240;51.370;-0.486;2022-10-16T14:47:54;101095.66;;;16.94;60.13
71424;BME280;59240;51.370;-0.486;2022-10-16T14:50:22;101075.97;;;16.84;60.77
71424;BME280;59240;51.370;-0.486;2022-10-16T14:52:49;101099.22;;;16.93;60.94
71424;BME280;59240;51.370;-0.486;2022-10-16T14:55:16;101094.13;;;16.90;60.84
71424;BME280;59240;51.370;-0.486;2022-10-16T14:57:44;101092.41;;;16.89;60.70
71424;BME280;59240;51.370;-0.486;2022-10-16T15:00:22;101096.94;;;16.86;60.95
71424;BME280;59240;51.370;-0.486;2022-10-16T15:02:50;101106.19;;;16.94;60.62